createdAt,value
2022-07-31T00:01:47.228Z,69.18
2022-07-31T00:04:14.335Z,69.14
2022-07-31T00:06:41.427Z,69.28
2022-07-31T00:09:08.163Z,69.19
2022-07-31T00:11:55.376Z,69.24
2022-07-31T00:14:22.152Z,69.15
2022-07-31T00:16:49.070Z,69.08
2022-07-31T00:19:17.522Z,69.11
2022-07-31T00:21:44.375Z,69.08
2022-07-31T00:24:11.148Z,69.02
2022-07-31T00:26:38.151Z,68.78
2022-07-31T00:29:04.869Z,68.67
2022-07-31T00:31:31.638Z,68.48
2022-07-31T00:34:01.514Z,68.27
2022-07-31T00:36:30.108Z,68.06
2022-07-31T00:38:59.495Z,67.59
2022-07-31T00:41:26.278Z,67.48
2022-07-31T00:43:53.198Z,67.40
2022-07-31T00:46:20.016Z,67.30
2022-07-31T00:48:50.009Z,67.33
2022-07-31T00:51:16.848Z,67.39
2022-07-31T00:53:43.642Z,67.36
2022-07-31T00:56:10.495Z,67.34
2022-07-31T00:58:37.301Z,67.19
2022-07-31T01:01:04.186Z,67.06
2022-07-31T01:03:31.194Z,67.10
2022-07-31T01:05:58.024Z,66.85
2022-07-31T01:08:24.826Z,66.84
2022-07-31T01:11:11.372Z,66.91
2022-07-31T01:13:49.049Z,66.87
2022-07-31T01:16:15.888Z,66.81
2022-07-31T01:18:42.720Z,66.65
2022-07-31T01:21:11.970Z,66.67
2022-07-31T01:23:54.895Z,66.50
2022-07-31T01:26:48.453Z,66.65
2022-07-31T01:29:29.016Z,66.73
2022-07-31T01:32:03.114Z,66.58
2022-07-31T01:34:42.070Z,66.74
2022-07-31T01:37:14.678Z,66.62
2022-07-31T01:40:03.521Z,66.57
2022-07-31T01:42:30.630Z,66.62
2022-07-31T01:44:59.617Z,66.30
2022-07-31T01:47:27.780Z,66.19
2022-07-31T01:49:54.819Z,66.03
2022-07-31T01:52:22.717Z,65.80
2022-07-31T01:54:49.728Z,65.80
2022-07-31T01:57:18.698Z,65.85
2022-07-31T01:59:49.705Z,65.99
2022-07-31T02:02:42.270Z,65.86
2022-07-31T02:05:10.455Z,65.97
2022-07-31T02:07:37.918Z,65.84
2022-07-31T02:10:05.423Z,65.84
2022-07-31T02:12:34.117Z,65.59
2022-07-31T02:15:06.826Z,65.57
2022-07-31T02:17:34.543Z,65.49
2022-07-31T02:20:19.786Z,65.42
2022-07-31T02:22:48.337Z,65.44
2022-07-31T02:25:15.661Z,65.40
2022-07-31T02:27:57.941Z,65.35
2022-07-31T02:30:38.819Z,65.26
2022-07-31T02:33:09.253Z,65.32
2022-07-31T02:35:36.094Z,65.45
2022-07-31T02:38:02.834Z,65.32
2022-07-31T02:40:29.670Z,65.38
2022-07-31T02:42:56.497Z,65.43
2022-07-31T02:45:23.417Z,65.59
2022-07-31T02:47:50.302Z,65.66
2022-07-31T02:50:20.245Z,65.74
2022-07-31T02:52:47.867Z,66.02
2022-07-31T02:55:14.668Z,66.18
2022-07-31T02:57:44.508Z,66.30
2022-07-31T03:00:23.094Z,66.42
2022-07-31T03:02:51.090Z,66.66
2022-07-31T03:05:18.150Z,66.74
2022-07-31T03:07:46.103Z,66.86
2022-07-31T03:10:16.203Z,67.09
2022-07-31T03:12:55.145Z,67.08
2022-07-31T03:15:24.212Z,67.29
2022-07-31T03:17:51.267Z,67.50
2022-07-31T03:20:22.369Z,67.56
2022-07-31T03:22:49.194Z,67.74
2022-07-31T03:25:21.576Z,67.74
2022-07-31T03:27:55.524Z,67.79
2022-07-31T03:30:26.833Z,67.74
2022-07-31T03:32:55.854Z,67.61
2022-07-31T03:35:24.142Z,67.61
2022-07-31T03:37:51.481Z,67.37
2022-07-31T03:40:18.311Z,67.43
2022-07-31T03:42:45.328Z,67.40
2022-07-31T03:45:12.082Z,67.20
2022-07-31T03:47:39.328Z,66.91
2022-07-31T03:50:06.716Z,66.52
2022-07-31T03:52:33.570Z,66.37
2022-07-31T03:55:00.839Z,66.38
2022-07-31T03:57:29.046Z,66.24
2022-07-31T03:59:58.412Z,66.16
2022-07-31T04:02:27.669Z,65.72
2022-07-31T04:05:08.155Z,65.57
2022-07-31T04:07:36.858Z,65.36
2022-07-31T04:10:03.756Z,65.13
2022-07-31T04:12:30.633Z,64.77
2022-07-31T04:14:57.470Z,64.48
2022-07-31T04:17:24.237Z,64.20
2022-07-31T04:19:51.793Z,63.70
2022-07-31T04:22:18.675Z,63.26
2022-07-31T04:24:45.812Z,63.12
2022-07-31T04:27:48.717Z,62.49
2022-07-31T04:30:16.226Z,62.40
2022-07-31T04:32:44.033Z,62.31
2022-07-31T04:35:13.763Z,62.01
2022-07-31T04:37:40.871Z,61.64
2022-07-31T04:40:16.055Z,61.49
2022-07-31T04:42:43.025Z,61.35
2022-07-31T04:45:10.395Z,61.15
2022-07-31T04:47:38.230Z,60.96
2022-07-31T04:50:05.564Z,60.91
2022-07-31T04:52:32.862Z,60.51
2022-07-31T04:55:04.617Z,60.38
2022-07-31T04:57:31.899Z,60.67
2022-07-31T05:00:00.981Z,60.54
2022-07-31T05:02:31.500Z,60.37
2022-07-31T05:04:58.363Z,60.59
2022-07-31T05:07:31.327Z,60.14
2022-07-31T05:10:00.414Z,60.00
2022-07-31T05:12:27.230Z,59.83
2022-07-31T05:14:54.689Z,59.79
2022-07-31T05:17:21.655Z,59.81
2022-07-31T05:20:00.504Z,59.41
2022-07-31T05:22:50.437Z,58.87
2022-07-31T05:25:33.161Z,58.39
2022-07-31T05:27:59.906Z,57.71
2022-07-31T05:30:30.146Z,57.08
2022-07-31T05:32:58.555Z,56.85
2022-07-31T05:35:25.772Z,55.54
2022-07-31T05:37:52.743Z,54.64
2022-07-31T05:40:27.050Z,54.15
2022-07-31T05:43:32.253Z,52.88
2022-07-31T05:46:09.323Z,51.93
2022-07-31T05:48:36.293Z,51.53
2022-07-31T05:51:05.609Z,51.51
2022-07-31T05:53:32.691Z,51.00
2022-07-31T05:56:18.245Z,50.31
2022-07-31T05:58:49.421Z,49.44
2022-07-31T06:01:16.616Z,49.71
2022-07-31T06:03:52.456Z,49.41
2022-07-31T06:06:26.359Z,49.55
2022-07-31T06:08:53.243Z,49.55
2022-07-31T06:11:20.432Z,48.69
2022-07-31T06:13:47.263Z,48.40
2022-07-31T06:16:25.474Z,48.16
2022-07-31T06:18:52.561Z,48.11
2022-07-31T06:23:45.239Z,48.25
2022-07-31T06:26:34.843Z,48.62
2022-07-31T06:29:01.859Z,48.34
2022-07-31T06:31:28.669Z,48.22
2022-07-31T06:33:56.600Z,48.48
2022-07-31T06:36:25.992Z,48.99
2022-07-31T06:38:57.325Z,49.27
2022-07-31T06:41:45.164Z,49.06
2022-07-31T06:44:31.107Z,48.84
2022-07-31T06:47:21.408Z,49.66
2022-07-31T06:50:20.564Z,50.06
2022-07-31T06:53:07.593Z,49.10
2022-07-31T06:55:35.324Z,48.69
2022-07-31T06:58:02.077Z,48.71
2022-07-31T07:00:29.363Z,48.81
2022-07-31T07:02:56.569Z,49.42
2022-07-31T07:05:23.415Z,49.13
2022-07-31T07:07:52.257Z,48.50
2022-07-31T07:10:19.132Z,47.49
2022-07-31T07:12:57.834Z,46.81
2022-07-31T07:15:24.762Z,46.67
2022-07-31T07:17:51.798Z,46.24
2022-07-31T07:20:28.829Z,45.73
2022-07-31T07:22:55.818Z,45.88
2022-07-31T07:25:51.527Z,46.16
2022-07-31T07:28:30.383Z,46.16
2022-07-31T07:30:58.721Z,46.12
2022-07-31T07:33:41.710Z,46.29
2022-07-31T07:36:24.172Z,46.08
2022-07-31T07:39:01.907Z,46.13
2022-07-31T07:41:29.340Z,45.21
2022-07-31T07:43:56.097Z,44.74
2022-07-31T07:46:26.121Z,44.65
2022-07-31T07:48:57.480Z,44.64
2022-07-31T07:51:38.555Z,44.95
2022-07-31T07:55:00.325Z,44.07
2022-07-31T07:57:59.476Z,44.07
2022-07-31T08:00:44.927Z,43.49
2022-07-31T08:03:48.429Z,42.68
2022-07-31T08:05:58.516Z,42.86
2022-07-31T08:08:25.393Z,42.31
2022-07-31T08:11:21.063Z,41.99
2022-07-31T08:14:05.320Z,42.13
2022-07-31T08:16:32.660Z,41.40
2022-07-31T08:19:01.721Z,39.78
2022-07-31T08:21:29.507Z,39.99
2022-07-31T08:23:56.453Z,39.89
2022-07-31T08:26:23.154Z,39.50
2022-07-31T08:28:54.941Z,39.73
2022-07-31T08:31:23.338Z,39.39
2022-07-31T08:34:07.513Z,39.46
2022-07-31T08:36:34.673Z,39.52
2022-07-31T08:39:03.688Z,39.73
2022-07-31T08:41:46.111Z,39.10
2022-07-31T08:44:12.968Z,39.09
2022-07-31T08:46:40.395Z,39.75
2022-07-31T08:49:09.657Z,40.15
2022-07-31T08:51:51.597Z,40.62
2022-07-31T08:54:22.226Z,40.78
2022-07-31T08:56:52.502Z,40.70
2022-07-31T08:59:19.984Z,41.45
2022-07-31T09:01:47.417Z,41.52
2022-07-31T09:04:14.183Z,42.29
2022-07-31T09:06:41.879Z,42.33
2022-07-31T09:09:08.695Z,42.24
2022-07-31T09:11:35.570Z,41.76
2022-07-31T09:14:27.915Z,41.77
2022-07-31T09:16:55.033Z,42.23
2022-07-31T09:19:51.167Z,42.15
2022-07-31T09:22:24.178Z,41.44
2022-07-31T09:24:51.112Z,40.11
2022-07-31T09:27:18.091Z,40.26
2022-07-31T09:29:46.808Z,40.65
2022-07-31T09:32:24.543Z,40.95
2022-07-31T09:35:12.392Z,40.75
2022-07-31T09:37:40.181Z,39.72
2022-07-31T09:40:34.855Z,40.07
2022-07-31T09:43:24.774Z,39.71
2022-07-31T09:45:57.949Z,39.46
2022-07-31T09:48:26.770Z,39.53
2022-07-31T09:51:00.329Z,39.77
2022-07-31T09:53:45.439Z,39.35
2022-07-31T09:56:35.378Z,39.52
2022-07-31T09:59:02.912Z,39.23
2022-07-31T10:01:29.979Z,38.73
2022-07-31T10:03:58.951Z,38.88
2022-07-31T10:06:26.192Z,39.15
2022-07-31T10:08:52.931Z,39.24
2022-07-31T10:11:25.881Z,39.02
2022-07-31T10:14:17.948Z,38.63
2022-07-31T10:16:44.828Z,38.33
2022-07-31T10:19:37.567Z,38.87
2022-07-31T10:22:22.892Z,38.94
2022-07-31T10:24:51.490Z,38.48
2022-07-31T10:27:19.361Z,38.66
2022-07-31T10:29:51.574Z,38.78
2022-07-31T10:32:18.583Z,38.97
2022-07-31T10:35:11.975Z,39.56
2022-07-31T10:38:38.440Z,39.26
2022-07-31T10:41:38.518Z,39.21
2022-07-31T10:44:23.448Z,38.78
2022-07-31T10:46:59.204Z,38.30
2022-07-31T10:49:40.355Z,38.37
2022-07-31T10:52:37.212Z,38.72
2022-07-31T10:55:25.762Z,37.70
2022-07-31T10:58:17.340Z,37.68
2022-07-31T11:01:08.771Z,37.72
2022-07-31T11:03:49.633Z,37.74
2022-07-31T11:06:17.501Z,37.57
2022-07-31T11:09:21.077Z,37.82
2022-07-31T11:11:55.273Z,37.86
2022-07-31T11:14:41.852Z,37.93
2022-07-31T11:18:23.519Z,38.63
2022-07-31T11:20:39.583Z,37.42
2022-07-31T11:23:07.119Z,37.42
2022-07-31T11:25:37.392Z,37.39
2022-07-31T11:28:13.422Z,37.21
2022-07-31T11:30:52.908Z,37.36
2022-07-31T11:33:43.744Z,37.44
2022-07-31T11:36:13.477Z,37.77
2022-07-31T11:38:41.833Z,37.70
2022-07-31T11:41:08.776Z,37.82
2022-07-31T11:43:37.845Z,38.45
2022-07-31T11:46:05.078Z,38.34
2022-07-31T11:48:42.204Z,37.77
2022-07-31T11:51:17.454Z,37.39
2022-07-31T11:53:44.248Z,37.31
2022-07-31T11:56:11.087Z,37.56
2022-07-31T11:58:38.798Z,37.86
2022-07-31T12:01:05.627Z,37.75
2022-07-31T12:03:38.855Z,37.45
2022-07-31T12:06:06.693Z,37.52
2022-07-31T12:10:02.769Z,37.54
2022-07-31T12:12:11.819Z,37.13
2022-07-31T12:14:39.599Z,37.32
2022-07-31T12:17:07.159Z,37.44
2022-07-31T12:19:38.681Z,37.08
2022-07-31T12:22:18.258Z,37.29
2022-07-31T12:24:45.180Z,37.08
2022-07-31T12:27:15.746Z,37.18
2022-07-31T12:29:42.821Z,37.65
2022-07-31T12:32:09.630Z,37.73
2022-07-31T12:34:38.411Z,37.74
2022-07-31T12:37:12.533Z,38.16
2022-07-31T12:39:59.682Z,38.06
2022-07-31T12:42:40.817Z,37.69
2022-07-31T12:45:19.322Z,37.71
2022-07-31T12:47:51.244Z,38.55
2022-07-31T12:50:20.532Z,38.48
2022-07-31T12:52:47.291Z,38.05
2022-07-31T12:55:17.232Z,37.70
2022-07-31T12:57:51.361Z,38.09
2022-07-31T13:00:22.494Z,38.16
2022-07-31T13:02:50.501Z,37.80
2022-07-31T13:05:17.423Z,38.12
2022-07-31T13:07:44.238Z,37.46
2022-07-31T13:10:19.868Z,37.44
2022-07-31T13:12:52.047Z,37.37
2022-07-31T13:15:20.725Z,37.60
2022-07-31T13:17:50.373Z,38.06
2022-07-31T13:20:18.048Z,37.96
2022-07-31T13:22:44.863Z,37.84
2022-07-31T13:25:11.736Z,37.08
2022-07-31T13:27:38.610Z,37.26
2022-07-31T13:30:05.935Z,37.37
2022-07-31T13:32:32.801Z,37.62
2022-07-31T13:35:24.001Z,37.37
2022-07-31T13:37:46.957Z,37.25
2022-07-31T13:40:14.139Z,37.63
2022-07-31T13:42:40.890Z,38.25
2022-07-31T13:45:08.755Z,36.90
2022-07-31T13:47:51.703Z,36.66
2022-07-31T13:50:19.438Z,36.94
2022-07-31T13:52:46.237Z,36.96
2022-07-31T13:55:13.003Z,37.06
2022-07-31T13:57:39.775Z,37.69
2022-07-31T14:00:07.589Z,37.95
2022-07-31T14:02:34.508Z,37.65
2022-07-31T14:05:01.422Z,37.96
2022-07-31T14:07:45.698Z,37.80
2022-07-31T14:10:19.865Z,37.89
2022-07-31T14:12:47.964Z,37.91
2022-07-31T14:15:14.792Z,37.72
2022-07-31T14:17:41.550Z,37.72
2022-07-31T14:20:09.040Z,37.83
2022-07-31T14:22:35.830Z,37.86
2022-07-31T14:25:02.634Z,37.83
2022-07-31T14:27:29.834Z,38.08
2022-07-31T14:29:56.875Z,38.67
2022-07-31T14:32:25.106Z,38.42
2022-07-31T14:34:52.195Z,38.63
2022-07-31T14:37:20.045Z,38.96
2022-07-31T14:39:46.890Z,38.93
2022-07-31T14:42:13.762Z,38.76
2022-07-31T14:44:42.134Z,39.04
2022-07-31T14:47:10.250Z,39.07
2022-07-31T14:50:08.373Z,38.57
2022-07-31T14:52:23.978Z,38.27
2022-07-31T14:54:50.775Z,38.52
2022-07-31T14:57:20.034Z,38.92
2022-07-31T14:59:50.323Z,38.81
2022-07-31T15:02:22.184Z,38.66
2022-07-31T15:04:50.700Z,38.49
2022-07-31T15:07:34.762Z,38.58
2022-07-31T15:10:04.396Z,38.70
2022-07-31T15:12:31.225Z,38.74
2022-07-31T15:14:57.963Z,38.80
2022-07-31T15:17:24.892Z,38.82
2022-07-31T15:19:51.709Z,38.63
2022-07-31T15:22:19.439Z,38.74
2022-07-31T15:24:49.122Z,38.78
2022-07-31T15:27:19.876Z,38.72
2022-07-31T15:30:00.561Z,38.56
2022-07-31T15:32:37.357Z,38.78
2022-07-31T15:35:05.374Z,38.51
2022-07-31T15:37:39.592Z,38.20
2022-07-31T15:40:08.358Z,37.72
2022-07-31T15:42:38.416Z,37.84
2022-07-31T15:45:06.735Z,37.71
2022-07-31T15:47:33.472Z,38.00
2022-07-31T15:50:00.461Z,38.19
2022-07-31T15:52:27.253Z,37.87
2022-07-31T15:54:54.038Z,37.72
2022-07-31T15:57:21.683Z,37.83
2022-07-31T15:59:49.568Z,37.97
2022-07-31T16:02:16.612Z,38.08
2022-07-31T16:04:51.968Z,38.36
2022-07-31T16:08:29.337Z,38.65
2022-07-31T16:10:16.808Z,39.03
2022-07-31T16:12:45.349Z,39.36
2022-07-31T16:15:12.759Z,39.56
2022-07-31T16:17:40.080Z,40.01
2022-07-31T16:20:25.735Z,39.92
2022-07-31T16:22:58.470Z,40.05
2022-07-31T16:25:25.809Z,40.13
2022-07-31T16:27:52.705Z,40.49
2022-07-31T16:30:19.676Z,40.84
2022-07-31T16:32:46.458Z,41.18
2022-07-31T16:35:13.328Z,41.36
2022-07-31T16:37:50.195Z,41.33
2022-07-31T16:40:28.509Z,41.80
2022-07-31T16:43:03.030Z,41.80
2022-07-31T16:45:48.836Z,41.97
2022-07-31T16:48:15.608Z,41.96
2022-07-31T16:50:42.310Z,42.02
2022-07-31T16:53:09.110Z,42.10
2022-07-31T16:55:59.764Z,42.36
2022-07-31T16:58:27.299Z,42.40
2022-07-31T17:00:54.105Z,42.38
2022-07-31T17:04:02.131Z,42.52
2022-07-31T17:06:10.527Z,42.47
2022-07-31T17:08:38.289Z,43.65
2022-07-31T17:11:05.565Z,45.63
2022-07-31T17:13:32.529Z,45.50
2022-07-31T17:15:59.274Z,45.62
2022-07-31T17:18:26.157Z,46.12
2022-07-31T17:20:56.959Z,46.38
2022-07-31T17:23:42.826Z,46.37
2022-07-31T17:26:21.115Z,46.60
2022-07-31T17:28:51.940Z,46.91
2022-07-31T17:31:19.094Z,47.31
2022-07-31T17:33:58.249Z,47.48
2022-07-31T17:36:26.961Z,47.22
2022-07-31T17:38:53.765Z,47.30
2022-07-31T17:41:25.465Z,47.34
2022-07-31T17:43:54.288Z,47.74
2022-07-31T17:46:29.948Z,48.06
2022-07-31T17:49:09.095Z,47.81
2022-07-31T17:51:35.828Z,48.37
2022-07-31T17:54:02.757Z,48.47
2022-07-31T17:56:29.502Z,48.22
2022-07-31T17:59:03.720Z,48.24
2022-07-31T18:01:30.795Z,47.54
2022-07-31T18:03:57.661Z,47.79
2022-07-31T18:06:24.483Z,47.48
2022-07-31T18:08:51.418Z,47.55
2022-07-31T18:11:18.246Z,47.47
2022-07-31T18:13:48.096Z,47.25
2022-07-31T18:16:15.666Z,47.44
2022-07-31T18:18:42.433Z,47.75
2022-07-31T18:21:09.421Z,47.69
2022-07-31T18:23:36.192Z,47.40
2022-07-31T18:26:03.974Z,47.77
2022-07-31T18:28:32.052Z,47.81
2022-07-31T18:31:01.802Z,47.93
2022-07-31T18:33:28.633Z,48.12
2022-07-31T18:35:55.387Z,48.38
2022-07-31T18:38:22.224Z,48.42
2022-07-31T18:40:49.143Z,48.45
2022-07-31T18:43:16.024Z,48.78
2022-07-31T18:45:43.164Z,49.12
2022-07-31T18:48:10.078Z,49.08
2022-07-31T18:51:01.208Z,49.27
2022-07-31T18:53:23.768Z,49.45
2022-07-31T18:55:50.635Z,49.39
2022-07-31T18:58:17.453Z,49.51
2022-07-31T19:00:44.346Z,49.37
2022-07-31T19:03:11.320Z,49.42
2022-07-31T19:05:38.108Z,49.48
2022-07-31T19:08:05.637Z,49.46
2022-07-31T19:10:32.475Z,49.47
2022-07-31T19:12:59.609Z,49.53
2022-07-31T19:15:26.424Z,49.44
2022-07-31T19:17:57.712Z,49.50
2022-07-31T19:20:56.543Z,49.40
2022-07-31T19:23:14.166Z,49.61
2022-07-31T19:25:55.717Z,49.68
2022-07-31T19:28:30.913Z,49.76
2022-07-31T19:30:57.763Z,49.73
2022-07-31T19:33:24.843Z,49.82
2022-07-31T19:35:58.482Z,49.84
2022-07-31T19:38:28.428Z,49.91
2022-07-31T19:40:55.362Z,49.94
2022-07-31T19:43:22.213Z,50.09
2022-07-31T19:46:10.840Z,50.10
2022-07-31T19:48:36.666Z,50.35
2022-07-31T19:51:04.331Z,50.35
2022-07-31T19:53:31.290Z,50.63
2022-07-31T19:55:58.213Z,50.63
2022-07-31T19:58:25.088Z,50.82
2022-07-31T20:00:51.898Z,51.03
2022-07-31T20:03:18.781Z,51.16
2022-07-31T20:05:45.684Z,51.18
2022-07-31T20:08:12.432Z,51.48
2022-07-31T20:10:39.195Z,51.69
2022-07-31T20:13:06.009Z,51.75
2022-07-31T20:15:52.345Z,51.91
2022-07-31T20:18:29.810Z,51.82
2022-07-31T20:20:58.529Z,51.89
2022-07-31T20:23:26.292Z,51.93
2022-07-31T20:25:53.133Z,52.05
2022-07-31T20:28:19.932Z,52.24
2022-07-31T20:30:46.746Z,52.31
2022-07-31T20:33:13.658Z,52.34
2022-07-31T20:35:49.153Z,52.22
2022-07-31T20:38:20.764Z,52.39
2022-07-31T20:40:53.642Z,52.45
2022-07-31T20:43:26.410Z,52.66
2022-07-31T20:45:53.888Z,52.62
2022-07-31T20:48:24.154Z,52.75
2022-07-31T20:50:51.496Z,52.73
2022-07-31T20:53:19.345Z,52.82
2022-07-31T20:55:49.184Z,52.84
2022-07-31T20:58:20.135Z,52.88
2022-07-31T21:00:47.713Z,52.97
2022-07-31T21:03:15.105Z,52.96
2022-07-31T21:05:42.007Z,52.87
2022-07-31T21:08:08.836Z,52.85
2022-07-31T21:10:36.070Z,53.06
2022-07-31T21:13:03.047Z,53.12
2022-07-31T21:15:42.689Z,53.16
2022-07-31T21:18:12.780Z,53.31
2022-07-31T21:20:50.807Z,53.34
2022-07-31T21:23:19.551Z,53.33
2022-07-31T21:25:46.609Z,53.38
2022-07-31T21:28:13.527Z,53.53
2022-07-31T21:30:40.531Z,53.65
2022-07-31T21:33:07.671Z,53.67
2022-07-31T21:35:37.138Z,53.66
2022-07-31T21:38:04.615Z,53.79
2022-07-31T21:40:34.008Z,53.90
2022-07-31T21:43:01.055Z,53.88
2022-07-31T21:45:36.729Z,54.05
2022-07-31T21:48:16.307Z,54.09
2022-07-31T21:50:44.836Z,54.15
2022-07-31T21:53:12.329Z,54.04
2022-07-31T21:55:39.404Z,54.00
2022-07-31T21:58:06.298Z,54.16
2022-07-31T22:00:34.283Z,54.22
2022-07-31T22:03:02.904Z,54.40
2022-07-31T22:05:48.820Z,54.30
2022-07-31T22:08:15.746Z,54.40
2022-07-31T22:10:42.589Z,54.45
2022-07-31T22:13:09.390Z,54.58
2022-07-31T22:15:58.081Z,54.56
2022-07-31T22:18:23.230Z,54.65
2022-07-31T22:20:53.918Z,54.92
2022-07-31T22:23:20.972Z,54.89
2022-07-31T22:25:49.114Z,54.93
2022-07-31T22:28:17.432Z,54.98
2022-07-31T22:30:44.463Z,54.97
2022-07-31T22:33:11.328Z,55.11
2022-07-31T22:35:38.410Z,54.98
2022-07-31T22:38:05.223Z,54.99
2022-07-31T22:40:32.039Z,55.20
2022-07-31T22:42:59.630Z,55.34
2022-07-31T22:45:29.596Z,55.54
2022-07-31T22:47:56.896Z,55.65
2022-07-31T22:50:23.718Z,55.82
2022-07-31T22:52:50.495Z,55.79
2022-07-31T22:55:17.282Z,56.10
2022-07-31T22:57:44.933Z,56.40
2022-07-31T23:00:13.364Z,56.61
2022-07-31T23:02:40.747Z,56.91
2022-07-31T23:05:08.120Z,57.05
2022-07-31T23:07:34.858Z,57.23
2022-07-31T23:10:01.621Z,57.35
2022-07-31T23:12:28.544Z,57.52
2022-07-31T23:14:56.208Z,57.77
2022-07-31T23:17:23.547Z,57.86
2022-07-31T23:19:53.749Z,57.92
2022-07-31T23:22:33.977Z,58.07
2022-07-31T23:25:02.886Z,58.24
2022-07-31T23:27:29.641Z,58.37
2022-07-31T23:29:56.444Z,58.51
2022-07-31T23:32:23.197Z,58.60
2022-07-31T23:34:49.939Z,58.58
2022-07-31T23:37:16.793Z,58.70
2022-07-31T23:39:43.557Z,58.83
2022-07-31T23:42:29.069Z,58.91
2022-07-31T23:44:55.858Z,59.02
2022-07-31T23:47:24.242Z,59.18
2022-07-31T23:50:11.034Z,59.29
2022-07-31T23:52:37.807Z,59.44
2022-07-31T23:55:05.069Z,59.46
2022-07-31T23:57:34.280Z,59.43
